sensor_id;sensor_type;location;lat;lon;timestamp;pressure;altitude;pressure_sealevel;temperature;humidity
55424;BME280;41294;42.666;23.350;2022-10-16T00:00:40;95670.88;;;10.07;98.91
55424;BME280;41294;42.666;23.350;2022-10-16T00:03:06;95660.69;;;10.09;99.16
55424;BME280;41294;42.666;23.350;2022-10-16T00:05:32;95673.13;;;10.09;98.83
55424;BME280;41294;42.666;23.350;2022-10-16T00:07:57;95680.19;;;9.96;99.29
55424;BME280;41294;42.666;23.350;2022-10-16T00:10:23;95673.00;;;9.96;99.81
55424;BME280;41294;42.666;23.350;2022-10-16T00:12:49;95677.97;;;9.94;99.73
55424;BME280;41294;42.666;23.350;2022-10-16T00:15:15;95678.97;;;10.00;99.00
55424;BME280;41294;42.666;23.350;2022-10-16T00:17:40;95676.50;;;9.93;98.82
55424;BME280;41294;42.666;23.350;2022-10-16T00:20:06;95686.72;;;9.76;100.00
55424;BME280;41294;42.666;23.350;2022-10-16T00:22:32;95685.06;;;9.81;99.90
55424;BME280;41294;42.666;23.350;2022-10-16T00:24:58;95682.41;;;9.81;99.61
55424;BME280;41294;42.666;23.350;2022-10-16T00:27:23;95690.03;;;9.92;98.74
55424;BME280;41294;42.666;23.350;2022-10-16T00:29:52;95693.09;;;9.90;98.87
55424;BME280;41294;42.666;23.350;2022-10-16T00:32:19;95692.75;;;9.88;98.53
55424;BME280;41294;42.666;23.350;2022-10-16T00:34:45;95695.81;;;9.87;98.32
55424;BME280;41294;42.666;23.350;2022-10-16T00:37:10;95694.94;;;9.78;98.59
55424;BME280;41294;42.666;23.350;2022-10-16T00:39:36;95699.69;;;9.67;99.37
55424;BME280;41294;42.666;23.350;2022-10-16T00:42:01;95695.09;;;9.55;100.00
55424;BME280;41294;42.666;23.350;2022-10-16T00:47:34;95699.47;;;9.61;99.33
55424;BME280;41294;42.666;23.350;2022-10-16T00:52:37;95691.88;;;9.31;100.00
55424;BME280;41294;42.666;23.350;2022-10-16T00:55:05;95689.50;;;9.37;100.00
55424;BME280;41294;42.666;23.350;2022-10-16T00:57:31;95694.59;;;9.44;99.93
55424;BME280;41294;42.666;23.350;2022-10-16T00:59:57;95690.03;;;9.32;100.00
55424;BME280;41294;42.666;23.350;2022-10-16T01:02:23;95706.75;;;9.22;100.00
55424;BME280;41294;42.666;23.350;2022-10-16T01:04:51;95705.91;;;9.09;100.00
55424;BME280;41294;42.666;23.350;2022-10-16T01:12:45;95709.53;;;9.15;100.00
55424;BME280;41294;42.666;23.350;2022-10-16T01:20:32;95708.94;;;9.07;100.00
55424;BME280;41294;42.666;23.350;2022-10-16T01:28:56;95692.38;;;8.95;100.00
55424;BME280;41294;42.666;23.350;2022-10-16T01:31:26;95695.38;;;8.93;100.00
55424;BME280;41294;42.666;23.350;2022-10-16T01:36:29;95697.66;;;8.91;100.00
55424;BME280;41294;42.666;23.350;2022-10-16T01:39:01;95690.28;;;8.86;100.00
55424;BME280;41294;42.666;23.350;2022-10-16T01:41:43;95692.38;;;8.75;100.00
55424;BME280;41294;42.666;23.350;2022-10-16T01:44:16;95686.19;;;8.85;100.00
55424;BME280;41294;42.666;23.350;2022-10-16T01:46:46;95689.75;;;8.95;100.00
55424;BME280;41294;42.666;23.350;2022-10-16T01:49:14;95705.50;;;8.75;100.00
55424;BME280;41294;42.666;23.350;2022-10-16T01:51:43;95705.84;;;8.77;100.00
55424;BME280;41294;42.666;23.350;2022-10-16T01:54:11;95706.53;;;8.81;100.00
55424;BME280;41294;42.666;23.350;2022-10-16T01:56:39;95715.16;;;8.62;100.00
55424;BME280;41294;42.666;23.350;2022-10-16T01:59:13;95715.94;;;8.79;100.00
55424;BME280;41294;42.666;23.350;2022-10-16T02:01:44;95704.09;;;8.71;100.00
55424;BME280;41294;42.666;23.350;2022-10-16T02:04:21;95706.78;;;8.67;100.00
55424;BME280;41294;42.666;23.350;2022-10-16T02:06:48;95713.66;;;8.61;100.00
55424;BME280;41294;42.666;23.350;2022-10-16T02:09:14;95718.91;;;8.61;100.00
55424;BME280;41294;42.666;23.350;2022-10-16T02:11:42;95714.47;;;8.58;100.00
55424;BME280;41294;42.666;23.350;2022-10-16T02:14:08;95715.03;;;8.50;100.00
55424;BME280;41294;42.666;23.350;2022-10-16T02:16:46;95728.00;;;8.57;100.00
55424;BME280;41294;42.666;23.350;2022-10-16T02:19:13;95724.84;;;8.46;100.00
55424;BME280;41294;42.666;23.350;2022-10-16T02:22:05;95728.88;;;8.50;100.00
55424;BME280;41294;42.666;23.350;2022-10-16T02:30:08;95728.63;;;8.64;100.00
55424;BME280;41294;42.666;23.350;2022-10-16T02:32:40;95733.38;;;8.69;100.00
55424;BME280;41294;42.666;23.350;2022-10-16T02:35:08;95732.25;;;8.70;100.00
55424;BME280;41294;42.666;23.350;2022-10-16T02:37:34;95735.84;;;8.76;99.59
55424;BME280;41294;42.666;23.350;2022-10-16T02:40:01;95735.84;;;8.76;99.16
55424;BME280;41294;42.666;23.350;2022-10-16T02:42:31;95737.06;;;8.72;99.17
55424;BME280;41294;42.666;23.350;2022-10-16T02:44:58;95740.25;;;8.63;99.20
55424;BME280;41294;42.666;23.350;2022-10-16T02:47:23;95737.16;;;8.49;99.92
55424;BME280;41294;42.666;23.350;2022-10-16T02:49:48;95739.03;;;8.48;100.00
55424;BME280;41294;42.666;23.350;2022-10-16T02:52:14;95738.03;;;8.42;100.00
55424;BME280;41294;42.666;23.350;2022-10-16T02:54:39;95741.78;;;8.41;100.00
55424;BME280;41294;42.666;23.350;2022-10-16T02:57:05;95752.34;;;8.38;100.00
55424;BME280;41294;42.666;23.350;2022-10-16T02:59:30;95755.97;;;8.44;100.00
55424;BME280;41294;42.666;23.350;2022-10-16T03:01:55;95757.88;;;8.43;100.00
55424;BME280;41294;42.666;23.350;2022-10-16T03:04:21;95759.16;;;8.35;100.00
55424;BME280;41294;42.666;23.350;2022-10-16T03:06:46;95759.66;;;8.27;100.00
55424;BME280;41294;42.666;23.350;2022-10-16T03:09:12;95751.44;;;8.25;100.00
55424;BME280;41294;42.666;23.350;2022-10-16T03:11:37;95757.84;;;8.24;100.00
55424;BME280;41294;42.666;23.350;2022-10-16T03:14:02;95759.31;;;8.25;100.00
55424;BME280;41294;42.666;23.350;2022-10-16T03:16:28;95763.03;;;8.27;100.00
55424;BME280;41294;42.666;23.350;2022-10-16T03:18:53;95767.28;;;8.41;100.00
55424;BME280;41294;42.666;23.350;2022-10-16T03:21:19;95767.56;;;8.46;100.00
55424;BME280;41294;42.666;23.350;2022-10-16T03:23:44;95764.56;;;8.25;100.00
55424;BME280;41294;42.666;23.350;2022-10-16T03:26:09;95771.56;;;8.31;100.00
55424;BME280;41294;42.666;23.350;2022-10-16T03:28:35;95766.59;;;8.18;100.00
55424;BME280;41294;42.666;23.350;2022-10-16T03:31:00;95763.25;;;8.13;100.00
55424;BME280;41294;42.666;23.350;2022-10-16T03:33:26;95766.94;;;8.19;100.00
55424;BME280;41294;42.666;23.350;2022-10-16T03:35:52;95767.81;;;8.10;100.00
55424;BME280;41294;42.666;23.350;2022-10-16T03:38:19;95772.25;;;8.13;100.00
55424;BME280;41294;42.666;23.350;2022-10-16T03:40:44;95776.72;;;8.16;100.00
55424;BME280;41294;42.666;23.350;2022-10-16T03:43:09;95769.81;;;8.25;100.00
55424;BME280;41294;42.666;23.350;2022-10-16T03:45:35;95778.84;;;8.24;100.00
55424;BME280;41294;42.666;23.350;2022-10-16T03:48:00;95771.47;;;8.16;100.00
55424;BME280;41294;42.666;23.350;2022-10-16T03:50:27;95767.72;;;8.17;100.00
55424;BME280;41294;42.666;23.350;2022-10-16T03:52:53;95760.75;;;8.07;100.00
55424;BME280;41294;42.666;23.350;2022-10-16T03:55:18;95764.44;;;8.09;100.00
55424;BME280;41294;42.666;23.350;2022-10-16T03:57:43;95758.03;;;7.91;100.00
55424;BME280;41294;42.666;23.350;2022-10-16T04:00:09;95759.44;;;7.95;100.00
55424;BME280;41294;42.666;23.350;2022-10-16T04:02:35;95763.75;;;7.82;100.00
55424;BME280;41294;42.666;23.350;2022-10-16T04:05:01;95756.88;;;7.92;100.00
55424;BME280;41294;42.666;23.350;2022-10-16T04:07:26;95770.34;;;7.94;100.00
55424;BME280;41294;42.666;23.350;2022-10-16T04:09:52;95763.66;;;7.89;100.00
55424;BME280;41294;42.666;23.350;2022-10-16T04:12:17;95762.19;;;7.88;100.00
55424;BME280;41294;42.666;23.350;2022-10-16T04:14:42;95767.38;;;7.92;100.00
55424;BME280;41294;42.666;23.350;2022-10-16T04:17:08;95763.75;;;7.82;100.00
55424;BME280;41294;42.666;23.350;2022-10-16T04:19:33;95763.88;;;7.75;100.00
55424;BME280;41294;42.666;23.350;2022-10-16T04:21:59;95762.56;;;7.87;100.00
55424;BME280;41294;42.666;23.350;2022-10-16T04:24:24;95768.72;;;7.77;100.00
55424;BME280;41294;42.666;23.350;2022-10-16T04:26:49;95769.00;;;7.82;100.00
55424;BME280;41294;42.666;23.350;2022-10-16T04:29:15;95769.88;;;7.76;100.00
55424;BME280;41294;42.666;23.350;2022-10-16T04:31:40;95777.69;;;7.79;100.00
55424;BME280;41294;42.666;23.350;2022-10-16T04:34:06;95778.94;;;7.71;100.00
55424;BME280;41294;42.666;23.350;2022-10-16T04:36:31;95779.00;;;7.64;100.00
55424;BME280;41294;42.666;23.350;2022-10-16T04:38:57;95783.19;;;7.62;100.00
55424;BME280;41294;42.666;23.350;2022-10-16T04:41:22;95780.44;;;7.69;100.00
55424;BME280;41294;42.666;23.350;2022-10-16T04:43:47;95784.19;;;7.68;100.00
55424;BME280;41294;42.666;23.350;2022-10-16T04:46:13;95788.66;;;7.71;100.00
55424;BME280;41294;42.666;23.350;2022-10-16T04:48:38;95786.81;;;7.68;100.00
55424;BME280;41294;42.666;23.350;2022-10-16T04:51:04;95797.31;;;7.68;100.00
55424;BME280;41294;42.666;23.350;2022-10-16T04:53:29;95798.47;;;7.67;100.00
55424;BME280;41294;42.666;23.350;2022-10-16T04:55:55;95795.84;;;7.67;100.00
55424;BME280;41294;42.666;23.350;2022-10-16T04:58:21;95800.06;;;7.84;100.00
55424;BME280;41294;42.666;23.350;2022-10-16T05:00:46;95805.44;;;8.22;100.00
55424;BME280;41294;42.666;23.350;2022-10-16T05:03:12;95810.00;;;9.19;94.91
55424;BME280;41294;42.666;23.350;2022-10-16T05:05:42;95809.41;;;10.14;88.92
55424;BME280;41294;42.666;23.350;2022-10-16T05:08:08;95808.56;;;10.89;85.07
55424;BME280;41294;42.666;23.350;2022-10-16T05:10:34;95805.91;;;11.30;82.68
55424;BME280;41294;42.666;23.350;2022-10-16T05:12:59;95810.19;;;11.77;80.56
55424;BME280;41294;42.666;23.350;2022-10-16T05:15:25;95808.56;;;12.05;77.90
55424;BME280;41294;42.666;23.350;2022-10-16T05:17:53;95815.38;;;12.61;75.93
55424;BME280;41294;42.666;23.350;2022-10-16T05:20:18;95812.16;;;12.78;73.95
55424;BME280;41294;42.666;23.350;2022-10-16T05:22:44;95823.47;;;13.00;74.35
55424;BME280;41294;42.666;23.350;2022-10-16T05:25:10;95823.84;;;13.32;72.84
55424;BME280;41294;42.666;23.350;2022-10-16T05:27:36;95827.47;;;13.26;71.30
55424;BME280;41294;42.666;23.350;2022-10-16T05:30:02;95825.00;;;13.62;70.36
55424;BME280;41294;42.666;23.350;2022-10-16T05:32:27;95820.81;;;13.82;70.33
55424;BME280;41294;42.666;23.350;2022-10-16T05:34:52;95819.13;;;13.97;69.24
55424;BME280;41294;42.666;23.350;2022-10-16T05:37:18;95819.19;;;14.15;69.13
55424;BME280;41294;42.666;23.350;2022-10-16T05:39:43;95823.50;;;14.48;67.58
55424;BME280;41294;42.666;23.350;2022-10-16T05:42:09;95816.00;;;14.91;66.07
55424;BME280;41294;42.666;23.350;2022-10-16T05:44:34;95822.66;;;14.78;66.14
55424;BME280;41294;42.666;23.350;2022-10-16T05:46:59;95823.22;;;15.18;64.78
55424;BME280;41294;42.666;23.350;2022-10-16T05:49:25;95821.91;;;15.13;65.52
55424;BME280;41294;42.666;23.350;2022-10-16T05:51:50;95824.66;;;15.37;64.46
55424;BME280;41294;42.666;23.350;2022-10-16T05:54:16;95831.41;;;16.20;62.57
55424;BME280;41294;42.666;23.350;2022-10-16T05:56:41;95836.91;;;14.98;65.03
55424;BME280;41294;42.666;23.350;2022-10-16T05:59:07;95846.22;;;13.40;72.38
55424;BME280;41294;42.666;23.350;2022-10-16T06:01:32;95847.91;;;14.25;69.65
55424;BME280;41294;42.666;23.350;2022-10-16T06:03:58;95844.44;;;14.55;67.72
55424;BME280;41294;42.666;23.350;2022-10-16T06:06:26;95852.09;;;14.53;68.61
55424;BME280;41294;42.666;23.350;2022-10-16T06:08:54;95854.44;;;14.60;67.50
55424;BME280;41294;42.666;23.350;2022-10-16T06:11:25;95864.72;;;14.01;69.42
55424;BME280;41294;42.666;23.350;2022-10-16T06:13:52;95857.25;;;14.92;67.79
55424;BME280;41294;42.666;23.350;2022-10-16T06:16:19;95860.63;;;15.38;64.98
55424;BME280;41294;42.666;23.350;2022-10-16T06:18:45;95865.66;;;16.50;61.99
55424;BME280;41294;42.666;23.350;2022-10-16T06:21:19;95864.28;;;17.02;58.77
55424;BME280;41294;42.666;23.350;2022-10-16T06:23:45;95866.81;;;15.44;64.01
55424;BME280;41294;42.666;23.350;2022-10-16T06:26:16;95875.41;;;14.28;67.63
55424;BME280;41294;42.666;23.350;2022-10-16T06:28:42;95867.72;;;14.87;67.77
55424;BME280;41294;42.666;23.350;2022-10-16T06:31:09;95874.91;;;15.40;64.48
55424;BME280;41294;42.666;23.350;2022-10-16T06:33:35;95868.69;;;16.02;62.36
55424;BME280;41294;42.666;23.350;2022-10-16T06:36:06;95874.31;;;14.74;66.88
55424;BME280;41294;42.666;23.350;2022-10-16T06:38:32;95872.50;;;15.69;63.54
55424;BME280;41294;42.666;23.350;2022-10-16T06:40:58;95877.84;;;14.62;67.40
55424;BME280;41294;42.666;23.350;2022-10-16T06:43:24;95882.44;;;14.97;67.55
55424;BME280;41294;42.666;23.350;2022-10-16T06:45:59;95879.78;;;15.06;66.14
55424;BME280;41294;42.666;23.350;2022-10-16T06:48:26;95882.44;;;13.83;70.50
55424;BME280;41294;42.666;23.350;2022-10-16T06:50:58;95893.13;;;14.40;68.89
55424;BME280;41294;42.666;23.350;2022-10-16T06:53:24;95898.59;;;14.45;70.26
55424;BME280;41294;42.666;23.350;2022-10-16T06:55:49;95900.88;;;15.27;65.82
55424;BME280;41294;42.666;23.350;2022-10-16T06:58:15;95898.81;;;13.90;71.00
55424;BME280;41294;42.666;23.350;2022-10-16T07:00:41;95898.53;;;15.29;66.76
55424;BME280;41294;42.666;23.350;2022-10-16T07:03:07;95916.13;;;14.52;68.56
55424;BME280;41294;42.666;23.350;2022-10-16T07:05:46;95914.16;;;14.43;68.95
55424;BME280;41294;42.666;23.350;2022-10-16T07:08:11;95898.81;;;15.31;65.92
55424;BME280;41294;42.666;23.350;2022-10-16T07:10:37;95900.41;;;15.38;65.36
55424;BME280;41294;42.666;23.350;2022-10-16T07:13:02;95898.22;;;15.27;66.55
55424;BME280;41294;42.666;23.350;2022-10-16T07:15:28;95900.41;;;16.06;64.12
55424;BME280;41294;42.666;23.350;2022-10-16T07:17:53;95902.91;;;17.12;59.46
55424;BME280;41294;42.666;23.350;2022-10-16T07:20:20;95917.59;;;14.62;67.86
55424;BME280;41294;42.666;23.350;2022-10-16T07:22:46;95914.72;;;14.95;66.98
55424;BME280;41294;42.666;23.350;2022-10-16T07:25:11;95914.03;;;15.90;64.59
55424;BME280;41294;42.666;23.350;2022-10-16T07:27:37;95923.34;;;14.69;68.03
55424;BME280;41294;42.666;23.350;2022-10-16T07:30:03;95917.81;;;16.07;62.96
55424;BME280;41294;42.666;23.350;2022-10-16T07:32:30;95922.03;;;14.65;67.89
55424;BME280;41294;42.666;23.350;2022-10-16T07:34:56;95921.34;;;14.91;68.35
55424;BME280;41294;42.666;23.350;2022-10-16T07:37:21;95914.56;;;16.03;64.57
55424;BME280;41294;42.666;23.350;2022-10-16T07:39:47;95909.16;;;17.90;59.68
55424;BME280;41294;42.666;23.350;2022-10-16T07:42:12;95910.81;;;18.02;56.64
55424;BME280;41294;42.666;23.350;2022-10-16T07:44:38;95913.41;;;15.27;64.76
55424;BME280;41294;42.666;23.350;2022-10-16T07:47:03;95916.19;;;15.50;65.60
55424;BME280;41294;42.666;23.350;2022-10-16T07:49:29;95913.50;;;16.18;63.53
55424;BME280;41294;42.666;23.350;2022-10-16T07:51:54;95923.88;;;15.30;65.69
55424;BME280;41294;42.666;23.350;2022-10-16T07:54:20;95923.53;;;14.83;67.91
55424;BME280;41294;42.666;23.350;2022-10-16T07:56:45;95926.16;;;14.66;69.44
55424;BME280;41294;42.666;23.350;2022-10-16T07:59:10;95923.06;;;15.74;65.93
55424;BME280;41294;42.666;23.350;2022-10-16T08:01:36;95919.69;;;16.80;61.49
55424;BME280;41294;42.666;23.350;2022-10-16T08:04:01;95915.75;;;16.43;63.19
55424;BME280;41294;42.666;23.350;2022-10-16T08:06:27;95920.94;;;16.38;61.85
55424;BME280;41294;42.666;23.350;2022-10-16T08:08:52;95924.16;;;15.41;66.29
55424;BME280;41294;42.666;23.350;2022-10-16T08:11:18;95925.19;;;16.76;61.95
55424;BME280;41294;42.666;23.350;2022-10-16T08:13:44;95918.88;;;16.42;61.90
55424;BME280;41294;42.666;23.350;2022-10-16T08:16:09;95923.81;;;17.04;61.14
55424;BME280;41294;42.666;23.350;2022-10-16T08:18:37;95921.72;;;18.32;57.15
55424;BME280;41294;42.666;23.350;2022-10-16T08:21:04;95918.69;;;16.77;60.05
55424;BME280;41294;42.666;23.350;2022-10-16T08:23:30;95909.88;;;17.90;57.74
55424;BME280;41294;42.666;23.350;2022-10-16T08:25:56;95917.50;;;18.26;55.75
55424;BME280;41294;42.666;23.350;2022-10-16T08:28:26;95913.69;;;16.94;60.33
55424;BME280;41294;42.666;23.350;2022-10-16T08:30:52;95909.19;;;18.38;56.41
55424;BME280;41294;42.666;23.350;2022-10-16T08:33:17;95907.59;;;17.98;56.82
55424;BME280;41294;42.666;23.350;2022-10-16T08:35:43;95904.97;;;18.46;54.91
55424;BME280;41294;42.666;23.350;2022-10-16T08:38:15;95902.41;;;19.11;53.85
55424;BME280;41294;42.666;23.350;2022-10-16T08:40:42;95907.22;;;20.40;50.41
55424;BME280;41294;42.666;23.350;2022-10-16T08:48:53;95910.75;;;20.20;48.35
55424;BME280;41294;42.666;23.350;2022-10-16T08:51:35;95904.97;;;20.27;48.28
55424;BME280;41294;42.666;23.350;2022-10-16T08:54:03;95902.09;;;20.36;47.49
55424;BME280;41294;42.666;23.350;2022-10-16T08:56:28;95914.31;;;19.36;49.22
55424;BME280;41294;42.666;23.350;2022-10-16T08:58:54;95903.63;;;20.12;47.60
55424;BME280;41294;42.666;23.350;2022-10-16T09:01:22;95917.22;;;19.58;48.08
55424;BME280;41294;42.666;23.350;2022-10-16T09:06:50;95915.66;;;17.60;52.06
55424;BME280;41294;42.666;23.350;2022-10-16T09:09:40;95913.03;;;18.52;50.39
55424;BME280;41294;42.666;23.350;2022-10-16T09:12:20;95915.88;;;19.02;49.02
55424;BME280;41294;42.666;23.350;2022-10-16T09:14:56;95905.66;;;19.01;47.55
55424;BME280;41294;42.666;23.350;2022-10-16T09:22:53;95893.44;;;20.52;44.60
55424;BME280;41294;42.666;23.350;2022-10-16T09:25:21;95902.81;;;20.37;45.36
55424;BME280;41294;42.666;23.350;2022-10-16T09:27:48;95907.78;;;18.77;48.79
55424;BME280;41294;42.666;23.350;2022-10-16T09:30:19;95910.00;;;17.67;48.79
55424;BME280;41294;42.666;23.350;2022-10-16T09:32:48;95911.06;;;18.04;48.68
55424;BME280;41294;42.666;23.350;2022-10-16T09:35:20;95911.78;;;18.67;47.95
55424;BME280;41294;42.666;23.350;2022-10-16T09:37:49;95905.59;;;17.64;49.45
55424;BME280;41294;42.666;23.350;2022-10-16T09:40:45;95908.34;;;17.98;49.04
55424;BME280;41294;42.666;23.350;2022-10-16T09:43:31;95898.06;;;19.14;47.23
55424;BME280;41294;42.666;23.350;2022-10-16T09:46:06;95903.00;;;19.21;46.99
55424;BME280;41294;42.666;23.350;2022-10-16T09:48:47;95901.88;;;19.78;46.17
55424;BME280;41294;42.666;23.350;2022-10-16T09:51:23;95894.88;;;18.90;45.52
55424;BME280;41294;42.666;23.350;2022-10-16T09:53:48;95888.72;;;19.04;46.48
55424;BME280;41294;42.666;23.350;2022-10-16T09:56:31;95880.06;;;20.52;44.05
55424;BME280;41294;42.666;23.350;2022-10-16T09:59:12;95886.16;;;20.16;44.99
55424;BME280;41294;42.666;23.350;2022-10-16T10:01:39;95893.34;;;18.15;48.55
55424;BME280;41294;42.666;23.350;2022-10-16T10:04:06;95888.41;;;18.42;47.47
55424;BME280;41294;42.666;23.350;2022-10-16T10:06:40;95883.38;;;17.67;48.65
55424;BME280;41294;42.666;23.350;2022-10-16T10:11:43;95873.50;;;19.86;44.70
55424;BME280;41294;42.666;23.350;2022-10-16T10:14:23;95879.38;;;18.74;46.41
55424;BME280;41294;42.666;23.350;2022-10-16T10:16:50;95875.19;;;18.33;47.66
55424;BME280;41294;42.666;23.350;2022-10-16T10:19:19;95874.97;;;18.51;47.38
55424;BME280;41294;42.666;23.350;2022-10-16T10:21:45;95874.16;;;19.50;45.98
55424;BME280;41294;42.666;23.350;2022-10-16T10:24:19;95868.41;;;19.32;45.35
55424;BME280;41294;42.666;23.350;2022-10-16T10:26:53;95862.09;;;20.16;43.33
55424;BME280;41294;42.666;23.350;2022-10-16T10:32:28;95865.38;;;18.99;42.96
55424;BME280;41294;42.666;23.350;2022-10-16T10:37:58;95861.47;;;17.92;44.32
55424;BME280;41294;42.666;23.350;2022-10-16T10:40:40;95857.22;;;18.28;43.84
55424;BME280;41294;42.666;23.350;2022-10-16T10:43:49;95856.66;;;18.24;44.74
55424;BME280;41294;42.666;23.350;2022-10-16T10:46:28;95848.78;;;18.01;45.43
55424;BME280;41294;42.666;23.350;2022-10-16T10:49:23;95842.41;;;18.27;45.07
55424;BME280;41294;42.666;23.350;2022-10-16T10:57:22;95836.16;;;20.75;41.72
55424;BME280;41294;42.666;23.350;2022-10-16T11:06:00;95819.00;;;21.25;40.73
55424;BME280;41294;42.666;23.350;2022-10-16T11:08:44;95820.47;;;21.10;39.51
55424;BME280;41294;42.666;23.350;2022-10-16T11:11:25;95817.59;;;21.95;38.09
55424;BME280;41294;42.666;23.350;2022-10-16T11:14:23;95819.78;;;20.62;38.18
55424;BME280;41294;42.666;23.350;2022-10-16T11:16:59;95818.63;;;19.90;37.76
55424;BME280;41294;42.666;23.350;2022-10-16T11:19:36;95803.19;;;20.05;39.13
55424;BME280;41294;42.666;23.350;2022-10-16T11:25:16;95815.88;;;19.23;40.34
55424;BME280;41294;42.666;23.350;2022-10-16T11:27:49;95821.81;;;19.33;40.36
55424;BME280;41294;42.666;23.350;2022-10-16T11:38:14;95801.44;;;19.97;39.97
55424;BME280;41294;42.666;23.350;2022-10-16T11:40:43;95805.56;;;20.40;37.82
55424;BME280;41294;42.666;23.350;2022-10-16T11:43:17;95812.75;;;20.70;38.30
55424;BME280;41294;42.666;23.350;2022-10-16T11:45:49;95804.94;;;20.61;38.94
55424;BME280;41294;42.666;23.350;2022-10-16T11:48:33;95802.84;;;19.92;39.95
55424;BME280;41294;42.666;23.350;2022-10-16T11:54:08;95805.66;;;20.14;39.74
55424;BME280;41294;42.666;23.350;2022-10-16T11:56:41;95814.78;;;19.61;41.16
55424;BME280;41294;42.666;23.350;2022-10-16T11:59:31;95810.97;;;19.42;42.15
55424;BME280;41294;42.666;23.350;2022-10-16T12:05:01;95800.25;;;21.09;39.33
55424;BME280;41294;42.666;23.350;2022-10-16T12:07:39;95809.25;;;21.11;40.09
55424;BME280;41294;42.666;23.350;2022-10-16T12:10:25;95812.69;;;19.76;43.63
55424;BME280;41294;42.666;23.350;2022-10-16T12:12:51;95801.75;;;20.04;43.44
55424;BME280;41294;42.666;23.350;2022-10-16T12:17:47;95807.78;;;21.05;41.97
55424;BME280;41294;42.666;23.350;2022-10-16T12:22:48;95802.47;;;21.43;39.58
55424;BME280;41294;42.666;23.350;2022-10-16T12:25:36;95805.53;;;20.87;41.56
55424;BME280;41294;42.666;23.350;2022-10-16T12:28:15;95805.09;;;20.36;42.07
55424;BME280;41294;42.666;23.350;2022-10-16T12:30:43;95798.25;;;20.93;41.96
55424;BME280;41294;42.666;23.350;2022-10-16T12:33:25;95805.66;;;21.52;40.85
55424;BME280;41294;42.666;23.350;2022-10-16T12:35:53;95797.03;;;20.30;40.57
55424;BME280;41294;42.666;23.350;2022-10-16T12:38:36;95802.41;;;20.41;41.23
55424;BME280;41294;42.666;23.350;2022-10-16T12:41:08;95811.13;;;19.64;43.38
55424;BME280;41294;42.666;23.350;2022-10-16T12:43:42;95804.16;;;20.02;42.57
55424;BME280;41294;42.666;23.350;2022-10-16T12:48:33;95800.53;;;20.53;42.19
55424;BME280;41294;42.666;23.350;2022-10-16T12:51:34;95808.94;;;20.82;40.23
55424;BME280;41294;42.666;23.350;2022-10-16T13:10:27;95821.31;;;19.60;42.27
55424;BME280;41294;42.666;23.350;2022-10-16T13:16:14;95809.31;;;19.81;42.66
55424;BME280;41294;42.666;23.350;2022-10-16T13:27:04;95818.84;;;20.23;41.15
55424;BME280;41294;42.666;23.350;2022-10-16T13:29:33;95815.47;;;20.23;41.36
55424;BME280;41294;42.666;23.350;2022-10-16T13:32:00;95816.47;;;19.33;42.39
55424;BME280;41294;42.666;23.350;2022-10-16T13:34:27;95814.19;;;19.00;43.51
55424;BME280;41294;42.666;23.350;2022-10-16T13:36:53;95817.50;;;18.96;43.87
55424;BME280;41294;42.666;23.350;2022-10-16T13:39:29;95822.69;;;18.79;44.02
55424;BME280;41294;42.666;23.350;2022-10-16T13:42:26;95822.16;;;18.75;43.57
55424;BME280;41294;42.666;23.350;2022-10-16T13:44:53;95818.31;;;19.01;43.66
55424;BME280;41294;42.666;23.350;2022-10-16T13:47:28;95819.13;;;18.88;44.87
55424;BME280;41294;42.666;23.350;2022-10-16T13:52:29;95830.28;;;18.86;44.98
55424;BME280;41294;42.666;23.350;2022-10-16T13:54:55;95827.97;;;19.19;45.26
55424;BME280;41294;42.666;23.350;2022-10-16T13:57:23;95826.34;;;19.27;44.84
55424;BME280;41294;42.666;23.350;2022-10-16T13:59:49;95827.09;;;19.27;43.93
55424;BME280;41294;42.666;23.350;2022-10-16T14:02:34;95826.53;;;18.98;44.95
55424;BME280;41294;42.666;23.350;2022-10-16T14:05:03;95826.00;;;18.74;45.49
55424;BME280;41294;42.666;23.350;2022-10-16T14:07:31;95832.13;;;19.20;45.19
55424;BME280;41294;42.666;23.350;2022-10-16T14:10:05;95832.44;;;19.27;45.36
55424;BME280;41294;42.666;23.350;2022-10-16T14:12:32;95832.81;;;18.95;44.76
55424;BME280;41294;42.666;23.350;2022-10-16T14:14:58;95837.94;;;18.98;45.38
55424;BME280;41294;42.666;23.350;2022-10-16T14:17:32;95831.81;;;19.12;44.31
55424;BME280;41294;42.666;23.350;2022-10-16T14:20:02;95842.06;;;19.19;43.74
55424;BME280;41294;42.666;23.350;2022-10-16T14:22:39;95842.91;;;18.66;44.05
55424;BME280;41294;42.666;23.350;2022-10-16T14:28:00;95844.53;;;19.03;43.25
55424;BME280;41294;42.666;23.350;2022-10-16T14:30:27;95850.56;;;18.58;42.73
55424;BME280;41294;42.666;23.350;2022-10-16T14:33:19;95851.97;;;18.54;43.10
55424;BME280;41294;42.666;23.350;2022-10-16T14:35:45;95849.34;;;18.39;43.37
55424;BME280;41294;42.666;23.350;2022-10-16T14:38:19;95848.03;;;18.49;43.38
55424;BME280;41294;42.666;23.350;2022-10-16T14:40:49;95849.91;;;18.63;43.50
55424;BME280;41294;42.666;23.350;2022-10-16T14:43:26;95852.69;;;18.54;43.58
55424;BME280;41294;42.666;23.350;2022-10-16T14:45:56;95853.63;;;18.51;43.79
55424;BME280;41294;42.666;23.350;2022-10-16T14:48:22;95860.69;;;18.34;44.15
55424;BME280;41294;42.666;23.350;2022-10-16T14:50:48;95862.25;;;18.26;44.10
55424;BME280;41294;42.666;23.350;2022-10-16T14:53:15;95855.19;;;18.23;44.35
55424;BME280;41294;42.666;23.350;2022-10-16T14:55:40;95864.41;;;18.42;44.24
55424;BME280;41294;42.666;23.350;2022-10-16T14:58:21;95867.41;;;18.15;44.88
55424;BME280;41294;42.666;23.350;2022-10-16T15:00:47;95860.41;;;17.84;45.15
55424;BME280;41294;42.666;23.350;2022-10-16T15:03:13;95863.69;;;17.79;45.60